sensor_id;sensor_type;location;lat;lon;timestamp;pressure;altitude;pressure_sealevel;temperature;humidity
71638;BME280;59485;43.542;-5.676;2023-08-24T00:01:39;66038.97;;;0.00;nan
71638;BME280;59485;43.542;-5.676;2023-08-24T00:04:04;66042.00;;;0.00;nan
71638;BME280;59485;43.542;-5.676;2023-08-24T00:06:30;66048.13;;;0.00;nan
71638;BME280;59485;43.542;-5.676;2023-08-24T00:08:55;66055.75;;;0.00;nan
71638;BME280;59485;43.542;-5.676;2023-08-24T00:11:21;66042.00;;;0.00;nan
71638;BME280;59485;43.542;-5.676;2023-08-24T00:13:47;66045.06;;;0.00;nan
71638;BME280;59485;43.542;-5.676;2023-08-24T00:16:19;66026.75;;;0.00;nan
71638;BME280;59485;43.542;-5.676;2023-08-24T00:18:46;66006.91;;;0.00;nan
71638;BME280;59485;43.542;-5.676;2023-08-24T00:21:15;66003.88;;;0.00;nan
71638;BME280;59485;43.542;-5.676;2023-08-24T00:23:48;66014.53;;;0.00;nan
71638;BME280;59485;43.542;-5.676;2023-08-24T00:26:14;66005.38;;;0.00;nan
71638;BME280;59485;43.542;-5.676;2023-08-24T00:28:42;66019.13;;;0.00;nan
71638;BME280;59485;43.542;-5.676;2023-08-24T00:31:08;66006.91;;;0.00;nan
71638;BME280;59485;43.542;-5.676;2023-08-24T00:33:33;66032.84;;;0.00;nan
71638;BME280;59485;43.542;-5.676;2023-08-24T00:36:00;66046.59;;;0.00;nan
71638;BME280;59485;43.542;-5.676;2023-08-24T00:38:26;66042.00;;;0.00;nan
71638;BME280;59485;43.542;-5.676;2023-08-24T00:40:51;66055.75;;;0.00;nan
71638;BME280;59485;43.542;-5.676;2023-08-24T00:43:19;66064.91;;;0.00;nan
71638;BME280;59485;43.542;-5.676;2023-08-24T00:45:53;66043.53;;;0.00;nan
71638;BME280;59485;43.542;-5.676;2023-08-24T00:48:20;66048.13;;;0.00;nan
71638;BME280;59485;43.542;-5.676;2023-08-24T00:50:53;66037.44;;;0.00;nan
71638;BME280;59485;43.542;-5.676;2023-08-24T00:53:19;66054.22;;;0.00;nan
71638;BME280;59485;43.542;-5.676;2023-08-24T00:55:46;66060.31;;;0.00;nan
71638;BME280;59485;43.542;-5.676;2023-08-24T00:58:13;66061.84;;;0.00;nan
71638;BME280;59485;43.542;-5.676;2023-08-24T01:00:39;66058.78;;;0.00;nan
71638;BME280;59485;43.542;-5.676;2023-08-24T01:03:04;66071.00;;;0.00;nan
71638;BME280;59485;43.542;-5.676;2023-08-24T01:05:30;66061.84;;;0.00;nan
71638;BME280;59485;43.542;-5.676;2023-08-24T01:07:56;66046.59;;;0.00;nan
71638;BME280;59485;43.542;-5.676;2023-08-24T01:10:21;66045.06;;;0.00;nan
71638;BME280;59485;43.542;-5.676;2023-08-24T01:13:02;66019.13;;;0.00;nan
71638;BME280;59485;43.542;-5.676;2023-08-24T01:15:37;66038.97;;;0.00;nan
71638;BME280;59485;43.542;-5.676;2023-08-24T01:18:09;66037.44;;;0.00;nan
71638;BME280;59485;43.542;-5.676;2023-08-24T01:20:37;66032.84;;;0.00;nan
71638;BME280;59485;43.542;-5.676;2023-08-24T01:23:18;66037.44;;;0.00;nan
71638;BME280;59485;43.542;-5.676;2023-08-24T01:25:51;66026.75;;;0.00;nan
71638;BME280;59485;43.542;-5.676;2023-08-24T01:28:19;66035.91;;;0.00;nan
71638;BME280;59485;43.542;-5.676;2023-08-24T01:30:46;66061.84;;;0.00;nan
71638;BME280;59485;43.542;-5.676;2023-08-24T01:33:13;66063.38;;;0.00;nan
71638;BME280;59485;43.542;-5.676;2023-08-24T01:35:39;66043.53;;;0.00;nan
71638;BME280;59485;43.542;-5.676;2023-08-24T01:38:05;66066.44;;;0.00;nan
71638;BME280;59485;43.542;-5.676;2023-08-24T01:43:29;66066.44;;;0.00;nan
71638;BME280;59485;43.542;-5.676;2023-08-24T01:45:57;66061.84;;;0.00;nan
71638;BME280;59485;43.542;-5.676;2023-08-24T01:48:25;66058.78;;;0.00;nan
71638;BME280;59485;43.542;-5.676;2023-08-24T01:50:51;66038.97;;;0.00;nan
71638;BME280;59485;43.542;-5.676;2023-08-24T01:53:17;66052.69;;;0.00;nan
71638;BME280;59485;43.542;-5.676;2023-08-24T01:55:45;66060.31;;;0.00;nan
71638;BME280;59485;43.542;-5.676;2023-08-24T01:58:10;66055.75;;;0.00;nan
71638;BME280;59485;43.542;-5.676;2023-08-24T02:00:36;66054.22;;;0.00;nan
71638;BME280;59485;43.542;-5.676;2023-08-24T02:03:02;66046.59;;;0.00;nan
71638;BME280;59485;43.542;-5.676;2023-08-24T02:05:27;66084.72;;;0.00;nan
71638;BME280;59485;43.542;-5.676;2023-08-24T02:07:54;66095.41;;;0.00;nan
71638;BME280;59485;43.542;-5.676;2023-08-24T02:10:20;66110.69;;;0.00;nan
71638;BME280;59485;43.542;-5.676;2023-08-24T02:12:45;66113.72;;;0.00;nan
71638;BME280;59485;43.542;-5.676;2023-08-24T02:15:11;66101.53;;;0.00;nan
71638;BME280;59485;43.542;-5.676;2023-08-24T02:17:36;66095.41;;;0.00;nan
71638;BME280;59485;43.542;-5.676;2023-08-24T02:20:02;66103.03;;;0.00;nan
71638;BME280;59485;43.542;-5.676;2023-08-24T02:22:29;66119.84;;;0.00;nan
71638;BME280;59485;43.542;-5.676;2023-08-24T02:24:55;66107.63;;;0.00;nan
71638;BME280;59485;43.542;-5.676;2023-08-24T02:27:21;66121.34;;;0.00;nan
71638;BME280;59485;43.542;-5.676;2023-08-24T02:29:47;66115.25;;;0.00;nan
71638;BME280;59485;43.542;-5.676;2023-08-24T02:32:12;66103.03;;;0.00;nan
71638;BME280;59485;43.542;-5.676;2023-08-24T02:34:38;66118.31;;;0.00;nan
71638;BME280;59485;43.542;-5.676;2023-08-24T02:37:04;66112.19;;;0.00;nan
71638;BME280;59485;43.542;-5.676;2023-08-24T02:39:29;66098.47;;;0.00;nan
71638;BME280;59485;43.542;-5.676;2023-08-24T02:41:55;66133.56;;;0.00;nan
71638;BME280;59485;43.542;-5.676;2023-08-24T02:44:20;66125.94;;;0.00;nan
71638;BME280;59485;43.542;-5.676;2023-08-24T02:46:48;66135.09;;;0.00;nan
71638;BME280;59485;43.542;-5.676;2023-08-24T02:49:13;66132.03;;;0.00;nan
71638;BME280;59485;43.542;-5.676;2023-08-24T02:51:39;66124.41;;;0.00;nan
71638;BME280;59485;43.542;-5.676;2023-08-24T02:54:05;66100.00;;;0.00;nan
71638;BME280;59485;43.542;-5.676;2023-08-24T02:56:30;66125.94;;;0.00;nan
71638;BME280;59485;43.542;-5.676;2023-08-24T02:58:56;66107.63;;;0.00;nan
71638;BME280;59485;43.542;-5.676;2023-08-24T03:01:21;66090.84;;;0.00;nan
71638;BME280;59485;43.542;-5.676;2023-08-24T03:03:47;66107.63;;;0.00;nan
71638;BME280;59485;43.542;-5.676;2023-08-24T03:06:13;66130.50;;;0.00;nan
71638;BME280;59485;43.542;-5.676;2023-08-24T03:08:38;66128.97;;;0.00;nan
71638;BME280;59485;43.542;-5.676;2023-08-24T03:11:04;66121.34;;;0.00;nan
71638;BME280;59485;43.542;-5.676;2023-08-24T03:13:35;66112.19;;;0.00;nan
71638;BME280;59485;43.542;-5.676;2023-08-24T03:16:05;66130.50;;;0.00;nan
71638;BME280;59485;43.542;-5.676;2023-08-24T03:18:30;66138.13;;;0.00;nan
71638;BME280;59485;43.542;-5.676;2023-08-24T03:20:56;66125.94;;;0.00;nan
71638;BME280;59485;43.542;-5.676;2023-08-24T03:23:22;66118.31;;;0.00;nan
71638;BME280;59485;43.542;-5.676;2023-08-24T03:25:47;66127.47;;;0.00;nan
71638;BME280;59485;43.542;-5.676;2023-08-24T03:28:13;66122.88;;;0.00;nan
71638;BME280;59485;43.542;-5.676;2023-08-24T03:30:45;66138.13;;;0.00;nan
71638;BME280;59485;43.542;-5.676;2023-08-24T03:33:11;66133.56;;;0.00;nan
71638;BME280;59485;43.542;-5.676;2023-08-24T03:35:36;66141.19;;;0.00;nan
71638;BME280;59485;43.542;-5.676;2023-08-24T03:38:02;66147.28;;;0.00;nan
71638;BME280;59485;43.542;-5.676;2023-08-24T03:40:29;66147.28;;;0.00;nan
71638;BME280;59485;43.542;-5.676;2023-08-24T03:42:54;66147.28;;;0.00;nan
71638;BME280;59485;43.542;-5.676;2023-08-24T03:45:20;66125.94;;;0.00;nan
71638;BME280;59485;43.542;-5.676;2023-08-24T03:47:46;66130.50;;;0.00;nan
71638;BME280;59485;43.542;-5.676;2023-08-24T03:50:12;66110.69;;;0.00;nan
71638;BME280;59485;43.542;-5.676;2023-08-24T03:52:37;66110.69;;;0.00;nan
71638;BME280;59485;43.542;-5.676;2023-08-24T03:55:05;66118.31;;;0.00;nan
71638;BME280;59485;43.542;-5.676;2023-08-24T03:57:31;66122.88;;;0.00;nan
71638;BME280;59485;43.542;-5.676;2023-08-24T03:59:57;66132.03;;;0.00;nan
71638;BME280;59485;43.542;-5.676;2023-08-24T04:02:23;66121.34;;;0.00;nan
71638;BME280;59485;43.542;-5.676;2023-08-24T04:04:49;66119.84;;;0.00;nan
71638;BME280;59485;43.542;-5.676;2023-08-24T04:07:15;66127.47;;;0.00;nan
71638;BME280;59485;43.542;-5.676;2023-08-24T04:09:40;66135.09;;;0.00;nan
71638;BME280;59485;43.542;-5.676;2023-08-24T04:12:06;66127.47;;;0.00;nan
71638;BME280;59485;43.542;-5.676;2023-08-24T04:14:32;66138.13;;;0.00;nan
71638;BME280;59485;43.542;-5.676;2023-08-24T04:16:57;66141.19;;;0.00;nan
71638;BME280;59485;43.542;-5.676;2023-08-24T04:19:23;66153.41;;;0.00;nan
71638;BME280;59485;43.542;-5.676;2023-08-24T04:21:49;66150.34;;;0.00;nan
71638;BME280;59485;43.542;-5.676;2023-08-24T04:24:14;66157.97;;;0.00;nan
71638;BME280;59485;43.542;-5.676;2023-08-24T04:26:40;66170.19;;;0.00;nan
71638;BME280;59485;43.542;-5.676;2023-08-24T04:29:05;66162.56;;;0.00;nan
71638;BME280;59485;43.542;-5.676;2023-08-24T04:31:31;66162.56;;;0.00;nan
71638;BME280;59485;43.542;-5.676;2023-08-24T04:33:56;66157.97;;;0.00;nan
71638;BME280;59485;43.542;-5.676;2023-08-24T04:36:22;66164.09;;;0.00;nan
71638;BME280;59485;43.542;-5.676;2023-08-24T04:38:47;66159.50;;;0.00;nan
71638;BME280;59485;43.542;-5.676;2023-08-24T04:41:13;66157.97;;;0.00;nan
71638;BME280;59485;43.542;-5.676;2023-08-24T04:43:38;66161.03;;;0.00;nan
71638;BME280;59485;43.542;-5.676;2023-08-24T04:46:04;66153.41;;;0.00;nan
71638;BME280;59485;43.542;-5.676;2023-08-24T04:48:30;66159.50;;;0.00;nan
71638;BME280;59485;43.542;-5.676;2023-08-24T04:51:00;66168.66;;;0.00;nan
71638;BME280;59485;43.542;-5.676;2023-08-24T04:53:27;66162.56;;;0.00;nan
71638;BME280;59485;43.542;-5.676;2023-08-24T04:55:53;66173.25;;;0.00;nan
71638;BME280;59485;43.542;-5.676;2023-08-24T04:58:19;66167.13;;;0.00;nan
71638;BME280;59485;43.542;-5.676;2023-08-24T05:00:44;66177.81;;;0.00;nan
71638;BME280;59485;43.542;-5.676;2023-08-24T05:03:10;66164.09;;;0.00;nan
71638;BME280;59485;43.542;-5.676;2023-08-24T05:05:36;66133.56;;;0.00;nan
71638;BME280;59485;43.542;-5.676;2023-08-24T05:08:03;66092.38;;;0.00;nan
71638;BME280;59485;43.542;-5.676;2023-08-24T05:10:32;66147.28;;;0.00;nan
71638;BME280;59485;43.542;-5.676;2023-08-24T05:13:01;66128.97;;;0.00;nan
71638;BME280;59485;43.542;-5.676;2023-08-24T05:15:27;66161.03;;;0.00;nan
71638;BME280;59485;43.542;-5.676;2023-08-24T05:17:52;66154.94;;;0.00;nan
71638;BME280;59485;43.542;-5.676;2023-08-24T05:20:25;66167.13;;;0.00;nan
71638;BME280;59485;43.542;-5.676;2023-08-24T05:22:51;66161.03;;;0.00;nan
71638;BME280;59485;43.542;-5.676;2023-08-24T05:25:17;66164.09;;;0.00;nan
71638;BME280;59485;43.542;-5.676;2023-08-24T05:27:43;66154.94;;;0.00;nan
71638;BME280;59485;43.542;-5.676;2023-08-24T05:30:09;66165.59;;;0.00;nan
71638;BME280;59485;43.542;-5.676;2023-08-24T05:32:35;66180.88;;;0.00;nan
71638;BME280;59485;43.542;-5.676;2023-08-24T05:35:05;66170.19;;;0.00;nan
71638;BME280;59485;43.542;-5.676;2023-08-24T05:37:31;66188.50;;;0.00;nan
71638;BME280;59485;43.542;-5.676;2023-08-24T05:39:57;66180.88;;;0.00;nan
71638;BME280;59485;43.542;-5.676;2023-08-24T05:42:22;66177.81;;;0.00;nan
71638;BME280;59485;43.542;-5.676;2023-08-24T05:44:48;66182.38;;;0.00;nan
71638;BME280;59485;43.542;-5.676;2023-08-24T05:47:13;66168.66;;;0.00;nan
71638;BME280;59485;43.542;-5.676;2023-08-24T05:49:39;66165.59;;;0.00;nan
71638;BME280;59485;43.542;-5.676;2023-08-24T05:52:04;66171.72;;;0.00;nan
71638;BME280;59485;43.542;-5.676;2023-08-24T05:54:30;66162.56;;;0.00;nan
71638;BME280;59485;43.542;-5.676;2023-08-24T05:56:55;66156.44;;;0.00;nan
71638;BME280;59485;43.542;-5.676;2023-08-24T05:59:25;66154.94;;;0.00;nan
71638;BME280;59485;43.542;-5.676;2023-08-24T06:01:51;66162.56;;;0.00;nan
71638;BME280;59485;43.542;-5.676;2023-08-24T06:04:16;66177.81;;;0.00;nan
71638;BME280;59485;43.542;-5.676;2023-08-24T06:06:41;66176.28;;;0.00;nan
71638;BME280;59485;43.542;-5.676;2023-08-24T06:09:07;66176.28;;;0.00;nan
71638;BME280;59485;43.542;-5.676;2023-08-24T06:11:33;66168.66;;;0.00;nan
71638;BME280;59485;43.542;-5.676;2023-08-24T06:13:58;66165.59;;;0.00;nan
71638;BME280;59485;43.542;-5.676;2023-08-24T06:16:24;66153.41;;;0.00;nan
71638;BME280;59485;43.542;-5.676;2023-08-24T06:18:50;66154.94;;;0.00;nan
71638;BME280;59485;43.542;-5.676;2023-08-24T06:21:16;66162.56;;;0.00;nan
71638;BME280;59485;43.542;-5.676;2023-08-24T06:23:42;66165.59;;;0.00;nan
71638;BME280;59485;43.542;-5.676;2023-08-24T06:26:07;66142.72;;;0.00;nan
71638;BME280;59485;43.542;-5.676;2023-08-24T06:28:35;66142.72;;;0.00;nan
71638;BME280;59485;43.542;-5.676;2023-08-24T06:31:01;66113.72;;;0.00;nan
71638;BME280;59485;43.542;-5.676;2023-08-24T06:33:28;66098.47;;;0.00;nan
71638;BME280;59485;43.542;-5.676;2023-08-24T06:35:59;66115.25;;;0.00;nan
71638;BME280;59485;43.542;-5.676;2023-08-24T06:38:25;66119.84;;;0.00;nan
71638;BME280;59485;43.542;-5.676;2023-08-24T06:40:51;66124.41;;;0.00;nan
71638;BME280;59485;43.542;-5.676;2023-08-24T06:43:17;66150.34;;;0.00;nan
71638;BME280;59485;43.542;-5.676;2023-08-24T06:45:44;66115.25;;;0.00;nan
71638;BME280;59485;43.542;-5.676;2023-08-24T06:48:09;66098.47;;;0.00;nan
71638;BME280;59485;43.542;-5.676;2023-08-24T06:50:35;66159.50;;;0.00;nan
71638;BME280;59485;43.542;-5.676;2023-08-24T06:53:02;66165.59;;;0.00;nan
71638;BME280;59485;43.542;-5.676;2023-08-24T06:55:28;66168.66;;;0.00;nan
71638;BME280;59485;43.542;-5.676;2023-08-24T06:57:57;66170.19;;;0.00;nan
71638;BME280;59485;43.542;-5.676;2023-08-24T07:00:22;66177.81;;;0.00;nan
71638;BME280;59485;43.542;-5.676;2023-08-24T07:02:49;66183.91;;;0.00;nan
71638;BME280;59485;43.542;-5.676;2023-08-24T07:05:15;66174.75;;;0.00;nan
71638;BME280;59485;43.542;-5.676;2023-08-24T07:07:44;66182.38;;;0.00;nan
71638;BME280;59485;43.542;-5.676;2023-08-24T07:10:11;66226.66;;;0.00;nan
71638;BME280;59485;43.542;-5.676;2023-08-24T07:12:36;66205.28;;;0.00;nan
71638;BME280;59485;43.542;-5.676;2023-08-24T07:15:03;66205.28;;;0.00;nan
71638;BME280;59485;43.542;-5.676;2023-08-24T07:17:29;66220.53;;;0.00;nan
71638;BME280;59485;43.542;-5.676;2023-08-24T07:19:54;66240.38;;;0.00;nan
71638;BME280;59485;43.542;-5.676;2023-08-24T07:22:20;66219.00;;;0.00;nan
71638;BME280;59485;43.542;-5.676;2023-08-24T07:24:45;66258.69;;;0.00;nan
71638;BME280;59485;43.542;-5.676;2023-08-24T07:27:11;66235.78;;;0.00;nan
71638;BME280;59485;43.542;-5.676;2023-08-24T07:29:37;66241.91;;;0.00;nan
71638;BME280;59485;43.542;-5.676;2023-08-24T07:32:03;66246.47;;;0.00;nan
71638;BME280;59485;43.542;-5.676;2023-08-24T07:34:28;66243.44;;;0.00;nan
71638;BME280;59485;43.542;-5.676;2023-08-24T07:36:54;66261.75;;;0.00;nan
71638;BME280;59485;43.542;-5.676;2023-08-24T07:39:20;66241.91;;;0.00;nan
71638;BME280;59485;43.542;-5.676;2023-08-24T07:41:46;66240.38;;;0.00;nan
71638;BME280;59485;43.542;-5.676;2023-08-24T07:44:12;66251.06;;;0.00;nan
71638;BME280;59485;43.542;-5.676;2023-08-24T07:46:38;66235.78;;;0.00;nan
71638;BME280;59485;43.542;-5.676;2023-08-24T07:49:05;66229.69;;;0.00;nan
71638;BME280;59485;43.542;-5.676;2023-08-24T07:51:33;66237.31;;;0.00;nan
71638;BME280;59485;43.542;-5.676;2023-08-24T07:53:59;66263.25;;;0.00;nan
71638;BME280;59485;43.542;-5.676;2023-08-24T07:56:25;66234.28;;;0.00;nan
71638;BME280;59485;43.542;-5.676;2023-08-24T08:01:20;66289.19;;;0.00;nan
71638;BME280;59485;43.542;-5.676;2023-08-24T08:03:46;66278.53;;;0.00;nan
71638;BME280;59485;43.542;-5.676;2023-08-24T08:06:11;66272.41;;;0.00;nan
71638;BME280;59485;43.542;-5.676;2023-08-24T08:08:38;66284.63;;;0.00;nan
71638;BME280;59485;43.542;-5.676;2023-08-24T08:11:04;66306.00;;;0.00;nan
71638;BME280;59485;43.542;-5.676;2023-08-24T08:13:30;66319.72;;;0.00;nan
71638;BME280;59485;43.542;-5.676;2023-08-24T08:16:05;66296.84;;;0.00;nan
71638;BME280;59485;43.542;-5.676;2023-08-24T08:18:35;66267.84;;;0.00;nan
71638;BME280;59485;43.542;-5.676;2023-08-24T08:21:01;66272.41;;;0.00;nan
71638;BME280;59485;43.542;-5.676;2023-08-24T08:23:33;66287.69;;;0.00;nan
71638;BME280;59485;43.542;-5.676;2023-08-24T08:25:59;66269.38;;;0.00;nan
71638;BME280;59485;43.542;-5.676;2023-08-24T08:28:24;66289.19;;;0.00;nan
71638;BME280;59485;43.542;-5.676;2023-08-24T08:30:50;66275.47;;;0.00;nan
71638;BME280;59485;43.542;-5.676;2023-08-24T08:33:15;66281.56;;;0.00;nan
71638;BME280;59485;43.542;-5.676;2023-08-24T08:35:41;66304.47;;;0.00;nan
71638;BME280;59485;43.542;-5.676;2023-08-24T08:38:06;66306.00;;;0.00;nan
71638;BME280;59485;43.542;-5.676;2023-08-24T08:40:36;66289.19;;;0.00;nan
71638;BME280;59485;43.542;-5.676;2023-08-24T08:43:03;66299.88;;;0.00;nan
71638;BME280;59485;43.542;-5.676;2023-08-24T08:45:29;66289.19;;;0.00;nan
71638;BME280;59485;43.542;-5.676;2023-08-24T08:47:59;66309.03;;;0.00;nan
71638;BME280;59485;43.542;-5.676;2023-08-24T08:50:25;66293.78;;;0.00;nan
71638;BME280;59485;43.542;-5.676;2023-08-24T08:52:51;66313.63;;;0.00;nan
71638;BME280;59485;43.542;-5.676;2023-08-24T08:55:17;66315.16;;;0.00;nan
71638;BME280;59485;43.542;-5.676;2023-08-24T08:57:43;66330.41;;;0.00;nan
71638;BME280;59485;43.542;-5.676;2023-08-24T09:00:11;66315.16;;;0.00;nan
71638;BME280;59485;43.542;-5.676;2023-08-24T09:02:39;66309.03;;;0.00;nan
71638;BME280;59485;43.542;-5.676;2023-08-24T09:05:07;66310.56;;;0.00;nan
71638;BME280;59485;43.542;-5.676;2023-08-24T09:07:34;66321.25;;;0.00;nan
71638;BME280;59485;43.542;-5.676;2023-08-24T09:10:01;66286.16;;;0.00;nan
71638;BME280;59485;43.542;-5.676;2023-08-24T09:12:31;66318.19;;;0.00;nan
71638;BME280;59485;43.542;-5.676;2023-08-24T09:14:59;66298.34;;;0.00;nan
71638;BME280;59485;43.542;-5.676;2023-08-24T09:17:25;66316.66;;;0.00;nan
71638;BME280;59485;43.542;-5.676;2023-08-24T09:19:57;66307.50;;;0.00;nan
71638;BME280;59485;43.542;-5.676;2023-08-24T09:22:26;66295.31;;;0.00;nan
71638;BME280;59485;43.542;-5.676;2023-08-24T09:24:51;66298.34;;;0.00;nan
71638;BME280;59485;43.542;-5.676;2023-08-24T09:27:19;66330.41;;;0.00;nan
71638;BME280;59485;43.542;-5.676;2023-08-24T09:29:51;66312.09;;;0.00;nan
71638;BME280;59485;43.542;-5.676;2023-08-24T09:32:27;66310.56;;;0.00;nan
71638;BME280;59485;43.542;-5.676;2023-08-24T09:34:52;66307.50;;;0.00;nan
71638;BME280;59485;43.542;-5.676;2023-08-24T09:37:18;66298.34;;;0.00;nan
71638;BME280;59485;43.542;-5.676;2023-08-24T09:39:45;66293.78;;;0.00;nan
71638;BME280;59485;43.542;-5.676;2023-08-24T09:42:10;66290.72;;;0.00;nan
71638;BME280;59485;43.542;-5.676;2023-08-24T09:44:36;66289.19;;;0.00;nan
71638;BME280;59485;43.542;-5.676;2023-08-24T09:47:02;66316.66;;;0.00;nan
71638;BME280;59485;43.542;-5.676;2023-08-24T09:49:28;66327.34;;;0.00;nan
71638;BME280;59485;43.542;-5.676;2023-08-24T09:54:21;66296.84;;;0.00;nan
71638;BME280;59485;43.542;-5.676;2023-08-24T09:56:52;66281.56;;;0.00;nan
71638;BME280;59485;43.542;-5.676;2023-08-24T09:59:21;66293.78;;;0.00;nan
71638;BME280;59485;43.542;-5.676;2023-08-24T10:01:50;66306.00;;;0.00;nan
71638;BME280;59485;43.542;-5.676;2023-08-24T10:04:24;66302.94;;;0.00;nan
71638;BME280;59485;43.542;-5.676;2023-08-24T10:07:02;66295.31;;;0.00;nan
71638;BME280;59485;43.542;-5.676;2023-08-24T10:09:35;66289.19;;;0.00;nan
71638;BME280;59485;43.542;-5.676;2023-08-24T10:12:04;66296.84;;;0.00;nan
71638;BME280;59485;43.542;-5.676;2023-08-24T10:14:45;66304.47;;;0.00;nan
71638;BME280;59485;43.542;-5.676;2023-08-24T10:17:13;66321.25;;;0.00;nan
71638;BME280;59485;43.542;-5.676;2023-08-24T10:19:39;66290.72;;;0.00;nan
71638;BME280;59485;43.542;-5.676;2023-08-24T10:22:07;66275.47;;;0.00;nan
71638;BME280;59485;43.542;-5.676;2023-08-24T10:24:33;66260.22;;;0.00;nan
71638;BME280;59485;43.542;-5.676;2023-08-24T10:27:02;66266.31;;;0.00;nan
71638;BME280;59485;43.542;-5.676;2023-08-24T10:29:29;66255.63;;;0.00;nan
71638;BME280;59485;43.542;-5.676;2023-08-24T10:31:55;66263.25;;;0.00;nan
71638;BME280;59485;43.542;-5.676;2023-08-24T10:34:22;66272.41;;;0.00;nan
71638;BME280;59485;43.542;-5.676;2023-08-24T10:36:48;66258.69;;;0.00;nan
71638;BME280;59485;43.542;-5.676;2023-08-24T10:39:17;66257.16;;;0.00;nan
71638;BME280;59485;43.542;-5.676;2023-08-24T10:41:52;66261.75;;;0.00;nan
71638;BME280;59485;43.542;-5.676;2023-08-24T10:44:24;66281.56;;;0.00;nan
71638;BME280;59485;43.542;-5.676;2023-08-24T10:47:06;66275.47;;;0.00;nan
71638;BME280;59485;43.542;-5.676;2023-08-24T10:49:32;66267.84;;;0.00;nan
71638;BME280;59485;43.542;-5.676;2023-08-24T10:51:58;66254.09;;;0.00;nan
71638;BME280;59485;43.542;-5.676;2023-08-24T10:54:46;66254.09;;;0.00;nan
71638;BME280;59485;43.542;-5.676;2023-08-24T10:57:27;66251.06;;;0.00;nan
71638;BME280;59485;43.542;-5.676;2023-08-24T11:00:03;66251.06;;;0.00;nan
71638;BME280;59485;43.542;-5.676;2023-08-24T11:05:21;66214.44;;;0.00;nan
71638;BME280;59485;43.542;-5.676;2023-08-24T11:07:51;66217.50;;;0.00;nan
71638;BME280;59485;43.542;-5.676;2023-08-24T11:10:19;66211.38;;;0.00;nan
71638;BME280;59485;43.542;-5.676;2023-08-24T11:13:08;66209.84;;;0.00;nan
71638;BME280;59485;43.542;-5.676;2023-08-24T11:15:38;66209.84;;;0.00;nan
71638;BME280;59485;43.542;-5.676;2023-08-24T11:18:22;66179.34;;;0.00;nan
71638;BME280;59485;43.542;-5.676;2023-08-24T11:21:05;66180.88;;;0.00;nan
71638;BME280;59485;43.542;-5.676;2023-08-24T11:23:32;66154.94;;;0.00;nan
71638;BME280;59485;43.542;-5.676;2023-08-24T11:25:59;66156.44;;;0.00;nan
71638;BME280;59485;43.542;-5.676;2023-08-24T11:28:29;66157.97;;;0.00;nan
71638;BME280;59485;43.542;-5.676;2023-08-24T11:30:56;66156.44;;;0.00;nan
71638;BME280;59485;43.542;-5.676;2023-08-24T11:33:30;66142.72;;;0.00;nan
71638;BME280;59485;43.542;-5.676;2023-08-24T11:35:57;66142.72;;;0.00;nan
71638;BME280;59485;43.542;-5.676;2023-08-24T11:38:22;66144.25;;;0.00;nan
71638;BME280;59485;43.542;-5.676;2023-08-24T11:40:48;66141.19;;;0.00;nan
71638;BME280;59485;43.542;-5.676;2023-08-24T11:43:25;66118.31;;;0.00;nan
71638;BME280;59485;43.542;-5.676;2023-08-24T11:45:53;66113.72;;;0.00;nan
71638;BME280;59485;43.542;-5.676;2023-08-24T11:48:24;66101.53;;;0.00;nan
71638;BME280;59485;43.542;-5.676;2023-08-24T11:50:50;66106.09;;;0.00;nan
71638;BME280;59485;43.542;-5.676;2023-08-24T11:53:17;66089.31;;;0.00;nan
71638;BME280;59485;43.542;-5.676;2023-08-24T11:55:42;66121.34;;;0.00;nan
71638;BME280;59485;43.542;-5.676;2023-08-24T11:58:18;66133.56;;;0.00;nan
71638;BME280;59485;43.542;-5.676;2023-08-24T12:00:45;66144.25;;;0.00;nan
71638;BME280;59485;43.542;-5.676;2023-08-24T12:03:12;66150.34;;;0.00;nan
71638;BME280;59485;43.542;-5.676;2023-08-24T12:05:38;66174.75;;;0.00;nan
71638;BME280;59485;43.542;-5.676;2023-08-24T12:08:05;66167.13;;;0.00;nan
71638;BME280;59485;43.542;-5.676;2023-08-24T12:10:34;66179.34;;;0.00;nan
71638;BME280;59485;43.542;-5.676;2023-08-24T12:13:04;66194.59;;;0.00;nan
71638;BME280;59485;43.542;-5.676;2023-08-24T12:15:36;66194.59;;;0.00;nan
71638;BME280;59485;43.542;-5.676;2023-08-24T12:18:09;66191.53;;;0.00;nan
71638;BME280;59485;43.542;-5.676;2023-08-24T12:20:35;66191.53;;;0.00;nan
71638;BME280;59485;43.542;-5.676;2023-08-24T12:23:01;66186.97;;;0.00;nan
71638;BME280;59485;43.542;-5.676;2023-08-24T12:25:27;66197.66;;;0.00;nan
71638;BME280;59485;43.542;-5.676;2023-08-24T12:28:14;66202.22;;;0.00;nan
71638;BME280;59485;43.542;-5.676;2023-08-24T12:30:51;66159.50;;;0.00;nan
71638;BME280;59485;43.542;-5.676;2023-08-24T12:33:28;66171.72;;;0.00;nan
71638;BME280;59485;43.542;-5.676;2023-08-24T12:35:54;66185.44;;;0.00;nan
71638;BME280;59485;43.542;-5.676;2023-08-24T12:38:24;66197.66;;;0.00;nan
71638;BME280;59485;43.542;-5.676;2023-08-24T12:40:50;66203.75;;;0.00;nan
71638;BME280;59485;43.542;-5.676;2023-08-24T12:43:15;66217.50;;;0.00;nan
71638;BME280;59485;43.542;-5.676;2023-08-24T12:45:41;66226.66;;;0.00;nan
71638;BME280;59485;43.542;-5.676;2023-08-24T12:48:07;66211.38;;;0.00;nan
71638;BME280;59485;43.542;-5.676;2023-08-24T12:50:38;66220.53;;;0.00;nan
71638;BME280;59485;43.542;-5.676;2023-08-24T12:53:04;66234.28;;;0.00;nan
71638;BME280;59485;43.542;-5.676;2023-08-24T12:55:32;66232.75;;;0.00;nan
71638;BME280;59485;43.542;-5.676;2023-08-24T12:58:01;66252.59;;;0.00;nan
71638;BME280;59485;43.542;-5.676;2023-08-24T13:00:26;66255.63;;;0.00;nan
71638;BME280;59485;43.542;-5.676;2023-08-24T13:02:52;66248.00;;;0.00;nan
71638;BME280;59485;43.542;-5.676;2023-08-24T13:05:18;66244.94;;;0.00;nan
71638;BME280;59485;43.542;-5.676;2023-08-24T13:07:43;66229.69;;;0.00;nan
71638;BME280;59485;43.542;-5.676;2023-08-24T13:10:09;66254.09;;;0.00;nan
71638;BME280;59485;43.542;-5.676;2023-08-24T13:12:36;66248.00;;;0.00;nan
71638;BME280;59485;43.542;-5.676;2023-08-24T13:15:02;66229.69;;;0.00;nan
71638;BME280;59485;43.542;-5.676;2023-08-24T13:17:30;66229.69;;;0.00;nan
71638;BME280;59485;43.542;-5.676;2023-08-24T13:19:55;66255.63;;;0.00;nan
71638;BME280;59485;43.542;-5.676;2023-08-24T13:22:21;66261.75;;;0.00;nan
71638;BME280;59485;43.542;-5.676;2023-08-24T13:24:47;66266.31;;;0.00;nan
71638;BME280;59485;43.542;-5.676;2023-08-24T13:27:12;66260.22;;;0.00;nan
71638;BME280;59485;43.542;-5.676;2023-08-24T13:29:38;66273.94;;;0.00;nan
71638;BME280;59485;43.542;-5.676;2023-08-24T13:32:04;66254.09;;;0.00;nan
71638;BME280;59485;43.542;-5.676;2023-08-24T13:34:30;66260.22;;;0.00;nan